Rio Mira — CUQA7 — position and weather

sailwx.info

Track history (hours):
 
Tides and Currents Weather Stations Pressure Air Temp Water Temp Dewpoint Dewpoint Depression Visibility Wind Speed Wind Dir Waves Ship Positions

Rio Mira

Last reported at 2018-Jul-20 10:20 UTC. Time now 2018-Jul-21 09:46 UTC.
Position N 37°08' W 008°32'.

Length 17 m.

Type: Fishing. MMSI: 263402840.

Date/timePositionNaut miles runAvg speedWind from/ knotsBaromVisibWave heightAir tempDewpointWater temp
2018-Jul-20 10:20N 37°08' W 008°32'1 1.7
2018-Jul-20 09:55N 37°07' W 008°32'3 7.1
2018-Jul-20 09:29N 37°06' W 008°35'2 3.5
2018-Jul-20 08:55N 37°06' W 008°37'0 0.4
2018-Jul-20 08:30N 37°06' W 008°37'0 0.1
2018-Jul-20 08:00N 37°06' W 008°37'2 3.2
2018-Jul-20 07:27N 37°05' W 008°39'0 0.6
2018-Jul-20 06:58N 37°05' W 008°39'0 0.4
2018-Jul-20 06:29N 37°05' W 008°39'0 0.1
2018-Jul-20 06:00N 37°05' W 008°39'0 0.3
2018-Jul-20 05:30N 37°05' W 008°39'2 4.0
2018-Jul-20 04:59N 37°04' W 008°41'1 2.8
2018-Jul-20 04:29N 37°04' W 008°43'2 0.6
2018-Jul-20 01:12N 37°05' W 008°41'1 5.7
2018-Jul-20 01:00N 37°05' W 008°39'3 6.0
2018-Jul-20 00:30N 37°06' W 008°36'3 6.1
2018-Jul-20 00:00N 37°05' W 008°32'3 6.1
2018-Jul-19 23:30N 37°05' W 008°28'3 5.9
2018-Jul-19 23:00N 37°05' W 008°24'3 5.7
2018-Jul-19 22:30N 37°05' W 008°21'1 2.9
2018-Jul-19 22:00N 37°04' W 008°19'1 3.0
2018-Jul-19 21:30N 37°05' W 008°21'3 5.2
2018-Jul-19 21:00N 37°05' W 008°24'3 6.9
2018-Jul-19 20:30N 37°05' W 008°28'3 6.3
2018-Jul-19 20:00N 37°07' W 008°32'1 0.0
2018-Jul-18 10:29N 37°08' W 008°32'3 5.6
2018-Jul-18 10:00N 37°06' W 008°34'2 3.9
2018-Jul-18 09:30N 37°05' W 008°36'1 2.0
2018-Jul-18 09:00N 37°06' W 008°37'3 5.5
2018-Jul-18 08:30N 37°04' W 008°40'3 6.8
2018-Jul-18 08:00N 37°05' W 008°36'4 8.1
2018-Jul-18 07:30N 37°05' W 008°31'3 6.2
2018-Jul-18 07:01N 37°05' W 008°28'0 0.2
2018-Jul-18 06:30N 37°05' W 008°28'0 0.0
2018-Jul-18 05:59N 37°05' W 008°28'0 0.1
2018-Jul-18 05:30N 37°05' W 008°28'2 4.4
2018-Jul-18 05:00N 37°05' W 008°30'3 5.4
2018-Jul-18 04:30N 37°06' W 008°33'2 5.0
2018-Jul-18 04:00N 37°08' W 008°32'0 0.0
2018-Jul-17 10:40N 37°08' W 008°32'0 0.0
2018-Jul-17 10:31N 37°08' W 008°32'0 0.3
2018-Jul-17 10:00N 37°08' W 008°32'3 6.0
2018-Jul-17 09:31N 37°06' W 008°34'4 8.1
2018-Jul-17 08:59N 37°05' W 008°39'7 1.4
2018-Jul-17 03:48N 37°03' W 008°48'4 6.6
2018-Jul-17 03:09N 37°04' W 008°43'1 6.7
2018-Jul-17 03:00N 37°04' W 008°42'5 7.0
2018-Jul-17 02:20N 37°06' W 008°36'3 6.6
2018-Jul-17 01:55N 37°06' W 008°33'1 0.1
2018-Jul-16 09:57N 37°06' W 008°32'4 8.4
2018-Jul-16 09:30N 37°05' W 008°36'4 8.3
2018-Jul-16 09:00N 37°04' W 008°41'10 1.3
2018-Jul-16 01:27N 37°02' W 008°54'2 4.7
2018-Jul-16 00:59N 37°03' W 008°51'3 6.2
2018-Jul-16 00:27N 37°04' W 008°47'3 6.4
2018-Jul-15 23:56N 37°04' W 008°43'3 6.5
2018-Jul-15 23:30N 37°05' W 008°40'3 6.6
2018-Jul-15 23:00N 37°06' W 008°36'3 6.4
2018-Jul-15 22:30N 37°06' W 008°32'  
2018-Jul-13 10:55N 37°08' W 008°32'0 0.2
2018-Jul-13 10:28N 37°08' W 008°32'2 3.7
2018-Jul-13 10:00N 37°06' W 008°32'2 4.2
2018-Jul-13 09:30N 37°06' W 008°35'0 0.2
2018-Jul-13 08:59N 37°06' W 008°34'0 0.0
2018-Jul-13 08:30N 37°06' W 008°34'3 5.9
2018-Jul-13 08:00N 37°05' W 008°38'1 2.1
2018-Jul-13 07:30N 37°05' W 008°39'0 0.2
2018-Jul-13 07:00N 37°05' W 008°39'0 0.2
2018-Jul-13 06:31N 37°05' W 008°39'1 2.8
2018-Jul-13 06:00N 37°05' W 008°41'1 1.3
2018-Jul-13 05:30N 37°05' W 008°42'3 5.0
2018-Jul-13 04:58N 37°03' W 008°44'2 3.6
2018-Jul-13 04:30N 37°04' W 008°43'1 2.2
2018-Jul-13 03:54N 37°05' W 008°42'0 0.0
2018-Jul-13 02:57N 37°05' W 008°42'2 4.0
2018-Jul-13 02:30N 37°05' W 008°39'3 6.1
2018-Jul-13 02:01N 37°06' W 008°36'3 5.9
2018-Jul-13 01:30N 37°05' W 008°32'1 2.4
2018-Jul-13 01:00N 37°05' W 008°30'3 5.2
2018-Jul-13 00:31N 37°08' W 008°32'  
Track history (hours):
 
Tides and Currents Weather Stations Pressure Air Temp Water Temp Dewpoint Dewpoint Depression Visibility Wind Speed Wind Dir Waves Ship Positions

Rio Mira

Last reported at 2018-Jul-20 10:20 UTC. Time now 2018-Jul-21 09:46 UTC.
Position N 37°08' W 008°32'.

Length 17 m.

Type: Fishing. MMSI: 263402840.

Date/timePositionNaut miles runAvg speedWind from/ knotsBaromVisibWave heightAir tempDewpointWater temp
2018-Jul-20 10:20N 37°08' W 008°32'1 1.7
2018-Jul-20 09:55N 37°07' W 008°32'3 7.1
2018-Jul-20 09:29N 37°06' W 008°35'2 3.5
2018-Jul-20 08:55N 37°06' W 008°37'0 0.4
2018-Jul-20 08:30N 37°06' W 008°37'0 0.1
2018-Jul-20 08:00N 37°06' W 008°37'2 3.2
2018-Jul-20 07:27N 37°05' W 008°39'0 0.6
2018-Jul-20 06:58N 37°05' W 008°39'0 0.4
2018-Jul-20 06:29N 37°05' W 008°39'0 0.1
2018-Jul-20 06:00N 37°05' W 008°39'0 0.3
2018-Jul-20 05:30N 37°05' W 008°39'2 4.0
2018-Jul-20 04:59N 37°04' W 008°41'1 2.8
2018-Jul-20 04:29N 37°04' W 008°43'2 0.6
2018-Jul-20 01:12N 37°05' W 008°41'1 5.7
2018-Jul-20 01:00N 37°05' W 008°39'3 6.0
2018-Jul-20 00:30N 37°06' W 008°36'3 6.1
2018-Jul-20 00:00N 37°05' W 008°32'3 6.1
2018-Jul-19 23:30N 37°05' W 008°28'3 5.9
2018-Jul-19 23:00N 37°05' W 008°24'3 5.7
2018-Jul-19 22:30N 37°05' W 008°21'1 2.9
2018-Jul-19 22:00N 37°04' W 008°19'1 3.0
2018-Jul-19 21:30N 37°05' W 008°21'3 5.2
2018-Jul-19 21:00N 37°05' W 008°24'3 6.9
2018-Jul-19 20:30N 37°05' W 008°28'3 6.3
2018-Jul-19 20:00N 37°07' W 008°32'1 0.0
2018-Jul-18 10:29N 37°08' W 008°32'3 5.6
2018-Jul-18 10:00N 37°06' W 008°34'2 3.9
2018-Jul-18 09:30N 37°05' W 008°36'1 2.0
2018-Jul-18 09:00N 37°06' W 008°37'3 5.5
2018-Jul-18 08:30N 37°04' W 008°40'3 6.8
2018-Jul-18 08:00N 37°05' W 008°36'4 8.1
2018-Jul-18 07:30N 37°05' W 008°31'3 6.2
2018-Jul-18 07:01N 37°05' W 008°28'0 0.2
2018-Jul-18 06:30N 37°05' W 008°28'0 0.0
2018-Jul-18 05:59N 37°05' W 008°28'0 0.1
2018-Jul-18 05:30N 37°05' W 008°28'2 4.4
2018-Jul-18 05:00N 37°05' W 008°30'3 5.4
2018-Jul-18 04:30N 37°06' W 008°33'2 5.0
2018-Jul-18 04:00N 37°08' W 008°32'0 0.0
2018-Jul-17 10:40N 37°08' W 008°32'0 0.0
2018-Jul-17 10:31N 37°08' W 008°32'0 0.3
2018-Jul-17 10:00N 37°08' W 008°32'3 6.0
2018-Jul-17 09:31N 37°06' W 008°34'4 8.1
2018-Jul-17 08:59N 37°05' W 008°39'7 1.4
2018-Jul-17 03:48N 37°03' W 008°48'4 6.6
2018-Jul-17 03:09N 37°04' W 008°43'1 6.7
2018-Jul-17 03:00N 37°04' W 008°42'5 7.0
2018-Jul-17 02:20N 37°06' W 008°36'3 6.6
2018-Jul-17 01:55N 37°06' W 008°33'1 0.1
2018-Jul-16 09:57N 37°06' W 008°32'4 8.4
2018-Jul-16 09:30N 37°05' W 008°36'4 8.3
2018-Jul-16 09:00N 37°04' W 008°41'10 1.3
2018-Jul-16 01:27N 37°02' W 008°54'2 4.7
2018-Jul-16 00:59N 37°03' W 008°51'3 6.2
2018-Jul-16 00:27N 37°04' W 008°47'3 6.4
2018-Jul-15 23:56N 37°04' W 008°43'3 6.5
2018-Jul-15 23:30N 37°05' W 008°40'3 6.6
2018-Jul-15 23:00N 37°06' W 008°36'3 6.4
2018-Jul-15 22:30N 37°06' W 008°32'  
2018-Jul-13 10:55N 37°08' W 008°32'0 0.2
2018-Jul-13 10:28N 37°08' W 008°32'2 3.7
2018-Jul-13 10:00N 37°06' W 008°32'2 4.2
2018-Jul-13 09:30N 37°06' W 008°35'0 0.2
2018-Jul-13 08:59N 37°06' W 008°34'0 0.0
2018-Jul-13 08:30N 37°06' W 008°34'3 5.9
2018-Jul-13 08:00N 37°05' W 008°38'1 2.1
2018-Jul-13 07:30N 37°05' W 008°39'0 0.2
2018-Jul-13 07:00N 37°05' W 008°39'0 0.2
2018-Jul-13 06:31N 37°05' W 008°39'1 2.8
2018-Jul-13 06:00N 37°05' W 008°41'1 1.3
2018-Jul-13 05:30N 37°05' W 008°42'3 5.0
2018-Jul-13 04:58N 37°03' W 008°44'2 3.6
2018-Jul-13 04:30N 37°04' W 008°43'1 2.2
2018-Jul-13 03:54N 37°05' W 008°42'0 0.0
2018-Jul-13 02:57N 37°05' W 008°42'2 4.0
2018-Jul-13 02:30N 37°05' W 008°39'3 6.1
2018-Jul-13 02:01N 37°06' W 008°36'3 5.9
2018-Jul-13 01:30N 37°05' W 008°32'1 2.4
2018-Jul-13 01:00N 37°05' W 008°30'3 5.2
2018-Jul-13 00:31N 37°08' W 008°32'  

Dump ship's entire track history